zaterdag 4 april 2020 | Home | Bestenlijsten | Bestenlijsten NL | Calculators | Nieuws | Records | Uitslagen | VZA Ranglijsten | Weer |
 
Recent nieuws meer nieuws
01-04: Resultaten Run your own race 5 km
31-03: Zal heerser John Vermeule ooit van zijn troon worden gestoten?
26-03: De onzichtbare tegenstander
26-03: Topatleet Gerard Tebroke stierf als kluizenaar
22-03: Nieuwe datum hardloopwedstrijden
18-03: WR 400m van Wayde van Niekerk belicht in het programma Wereldrecord
Recente uitslagen
  meer uitslagen
zo 08-03: 4e Natuurloop Cadzand-Bad (51)
za 07-03: 53e Massaloop Oostkapelle (174)
za 29-02: Scheldeloop Terneuzen (61)
za 29-02: 31e Kustcross Vlissingen (107)
zo 23-02: 3e Natuurloop Cadzand-Bad (42)
zo 23-02: 9e Kapellecross Kapelle-Biezelinge (75)
zo 23-02: Bosbokkentrail Westenschouwen (273)
za 22-02: Halve van Axel (248)
 
Zoek tenminste met 3 tekens van wedstrijd, datum, plaats of atleet

56e Wallenloop

Goes, zaterdag 7 januari 2017 - Organisatie: AV'56
7.44 km
PltsNaam
Tijdkm/umin/kmm/secgap
1  Tim van de VeldeDuffel23.06minJoB   19.325  3:065.37-
2  Maarten de NysDuffel23.41minMse   18.849  3:115.24+0:35
3  Erwin AdanDynamica23.55minMse   18.665  3:135.18+0:49
4  Patrick de VosAV'5624.07minMse   18.510  3:145.14+1:01
5  Erwin HarmesGonzalez Running24.32minM35   18.196  3:185.05+1:26
6  Joachim PoortmansDuffel24.44minM35   18.049  3:195.01+1:38
7  Ronnie OvergaauwDynamica24.50minMse   17.976  3:204.99+1:44
8  Jurgen TorfsDuffel25.37minM35   17.426  3:274.84+2:31
9  Glenn LeysDuffel25.57minJoA   17.202  3:294.78+2:51
10  Rens de RidderDynamica26.14minJoA   17.017  3:324.73+3:08
11  Crum van der LindenDynamica26.20minMse   16.952  3:324.71+3:14
12  Boris de BruijnAV'5626.24minMse   16.909  3:334.70+3:18
13  Arjo VerhageDynamica26.58minM45   16.554  3:374.60+3:52
14  Jordi BotAV'5627.41minJoA   16.125  3:434.48+4:35
15  Peter van LimbergenAV'5628.12minM40   15.830  3:474.40+5:06
16  Johan KarelseHeinkenszand28.19minM40   15.765  3:484.38+5:13
17  John SlabbekoornKapelle-Biezelinge28.26minM50   15.700  3:494.36+5:20
18  Frank HouwelingAV'5628.44minM40   15.536  3:524.32+5:38
19  Jan de WildeAV'5628.56minM55   15.429  3:534.29+5:50
20  Jan-Kees KooleAV'5628.59minMse   15.402  3:544.28+5:53
21  Monique VerschuureAV'5629.01minV35   15.384  3:544.27+5:55
22  Jozias BooneGoes29.04minMse   15.358  3:544.27+5:58
23  Rini BruggemanAV'5629.06minM50   15.340  3:554.26+6:00
24  Michel BekinkAV'5629.19minM40   15.227  3:564.23+6:13
25  Bart BalkenendeAV'5629.21minJoA   15.210  3:574.22+6:15
26  Mirthe OverkampMiddelburg29.50minVse   14.963  4:014.16+6:44
27  Jan ProvoostKapelle-Biezelinge29.53minM35   14.938  4:014.15+6:47
28  Jan JoosseKapelle-Biezelinge29.56minM45   14.913  4:014.14+6:50
29  Jan Willem MeeuwseAV'5629.58minM50   14.897  4:024.14+6:52
30  Berry SimonseAV'5630.07minM45   14.822  4:034.12+7:01
31  Rinus van de WoestijneMiddelburg30.10minM35   14.798  4:034.11+7:04
32  Monica SanderseDynamica30.25minVse   14.676  4:054.08+7:19
33  Reinier SpijkGoes30.34minM35   14.604  4:074.06+7:28
34  Gerben van der BliekGoes30.46minM35   14.509  4:084.03+7:40
35  Gijsbert ElstgeestAV'5630.59minM35   14.408  4:104.00+7:53
36  Leon van KruiningenGoes31.03minMse   14.377  4:103.99+7:57
37  Henk LousDynamica31.17minM55   14.270  4:123.96+8:11
38  Marco van den BoogaardGoes31.28minM45   14.186  4:143.94+8:22
39  Andre MeijersAV'5631.33minM45   14.149  4:143.93+8:27
40  Rick de SmitGoes31.37minMse   14.119  4:153.92+8:31
41  Jeroen SteendijkGoes31.41minMse   14.089  4:163.91+8:35
42  John OverweelDynamica31.55minM65   13.986  4:173.89+8:49
43  David WalterDusseldorp32.16minM35   13.835  4:203.84+9:10
44  Alex Traass-Heer Arendskerke32.31minMse   13.728  4:223.81+9:25
45  William de JongeNieuwdorp32.34minM45   13.707  4:233.81+9:28
46  Robin de VriendHansweert32.37minMse   13.686  4:233.80+9:31
47  Gertjan BakkerAV'5632.39minM45   13.672  4:233.80+9:33
48  Leon VermeulenWemeldinge32.44minM35   13.637  4:243.79+9:38
49  Co de FeijterDelta Sport33.02minM50   13.514  4:263.75+9:56
50  Rinus PaardekooperAV'5633.39minM55   13.266  4:313.68+10:33
51  Rene GoetheerWolphaartsdijk33.53minM45   13.175  4:333.66+10:47
52  Jordan LangeveldeKruiningen34.02minMse   13.117  4:343.64+10:56
53  Jan KrijnsenGoes34.02minM45   13.117  4:343.64+10:56
54  Eric van RemortelAV'5634.05minM55   13.097  4:353.64+10:59
55  Saskia GooleAV'5634.13minV45   13.046  4:363.62+11:07
56  Johan SpruitKapelle-Biezelinge34.17minMse   13.021  4:363.62+11:11
57  Michael Willemses-Heer Arendskerke34.21minMse   12.996  4:373.61+11:15
58  Ron DellebekeDynamica34.24minM55   12.977  4:373.60+11:18
59  Martin RegtAV'5634.49minMse   12.821  4:413.56+11:43
60  Remi AnthonisseKloetinge34.51minMse   12.809  4:413.56+11:45
61  Ramon AnthonisseKloetinge34.59minMse   12.760  4:423.54+11:53
62  Sjaak Dekkers-Heerenhoek35.03minM55   12.736  4:433.54+11:57
63  Marcel van GilstAV'5635.10minM45   12.694  4:443.53+12:04
64  Dick KikKrabbendijke35.19minM55   12.640  4:453.51+12:13
65  John van NunenWolphaartsdijk35.20minM40   12.634  4:453.51+12:14
66  Ruud FredriksAV'5635.25minM60   12.604  4:463.50+12:19
67  Peter Dijkwels-Heer Arendskerke35.27minM45   12.592  4:463.50+12:21
68  Acronius KramerAV'5635.29minM60   12.581  4:463.49+12:23
69  Boudewijn BeusmansVoorburg35.31minM35   12.569  4:463.49+12:25
70  Wim RooseAart Stigter35.34minM65   12.551  4:473.49+12:28
71  Marc-Jan MoerlandGoes35.36minMse   12.539  4:473.48+12:30
72  Matthijs van de DriesHeinkenszand35.38minMse   12.528  4:473.48+12:32
73  Andre KramerYerseke35.46minM45   12.481  4:483.47+12:40
74  Laurens JobseGoes35.49minMse   12.463  4:493.46+12:43
75  Edwin van WelKloetinge35.57minMse   12.417  4:503.45+12:51
76  Ludo VermeulenLewedorp35.59minMse   12.406  4:503.45+12:53
77  Corne van LomwelOost-Souburg36.02minM45   12.389  4:513.44+12:56
78  Paul JeremiasseKloetinge36.05minMse   12.371  4:513.44+12:59
80  Bram van EenennaamNieuw- en Sint Joosland36.17minM55   12.303  4:533.42+13:11
81  Robert SteendijkRotterdam36.20minMse   12.286  4:533.41+13:14
82  Josa van der VlietScheldesport36.22minV45   12.275  4:533.41+13:16
83  Maurice SteketeeMiddelburg36.25minM35   12.258  4:543.41+13:19
84  Niek van BelzenArnemuiden36.51minM45   12.114  4:573.36+13:45
85  Claudia van SighemWestkapelle37.05minV45   12.038  4:593.34+13:59
86  Christine BalkenendeAV'5637.09minV50   12.016  5:003.34+14:03
87  Stefan van den DriesAV'5637.17minMse   11.973  5:013.33+14:11
88  John GuequierreDynamica37.35minM65   11.878  5:033.30+14:29
89  Andre de KoningGoes37.43minM55   11.836  5:043.29+14:37
90  Wendy TheuneDynamica38.06minV40   11.717  5:073.25+15:00
91  Marjolein BeusmansVoorburg38.18minV35   11.655  5:093.24+15:12
92  Piet VerwijsGoes38.20minM65   11.645  5:093.23+15:14
93  Jeroen van GentGoes38.24minM35   11.625  5:103.23+15:18
94  Chris van AntwerpenAV'5638.26minM35   11.615  5:103.23+15:20
95  Debby ElstgeestAV'5638.30minV35   11.595  5:103.22+15:24
96  Jan van de VijverDuffel38.58minM35   11.456  5:143.18+15:52
97  Anita VeldhofAV'5639.02minVse   11.436  5:153.18+15:56
98  Arthur StijnsDynamica39.04minM65   11.427  5:153.17+15:58
99  Ineke TempelaarDynamica39.18minV55   11.359  5:173.16+16:12
100  Danny van 't WesteindeGoes39.21minM35   11.344  5:173.15+16:15
101  Everdien VermeulenKloetinge39.27minV45   11.316  5:183.14+16:21
102  Ko de VisserSchore39.52minM55   11.197  5:223.11+16:46
103  Jan DaleboutKapelle-Biezelinge40.25minM55   11.045  5:263.07+17:19
104  Rene VerhulstGoes40.48minM55   10.941  5:293.04+17:42
105  Lenie van KlevenVlissingen41.31minV60   10.752  5:352.99+18:25
106  Kees van den PolGoes41.58minM65   10.637  5:382.95+18:52
107  Wouter de BruijnAV'5642.21minMse   10.541  5:422.93+19:15
108  Jaap OeleKapelle-Biezelinge43.50minM65   10.184  5:532.83+20:44
109  Ria FredriksAV'5644.17minV45   10.081  5:572.80+21:11
110  Nick van EenennaamOost-Souburg44.31minMse   10.028  5:592.79+21:25
111  Hans BalGoes44.43minM65   9.983  6:012.77+21:37
112  Marian van den BoogaardGoes45.11minV45   9.880  6:042.74+22:05
113  Jacqueline de BondtGoes45.14minV50   9.869  6:052.74+22:08
114  Ylja van IwaardenAV'5648.56minVse   9.123  6:352.53+25:50
115  Chantal Verhoevens-Gravenpolder50.21minV35   8.866  6:462.46+27:15
Mannen: 90 (78.95%) => M35=16 - M40=5 - M45=14 - M50=4 - M55=12 - M60=2 - M65=8 - Mse=29
Vrouwen: 19 (16.67%) => V35=4 - V40=1 - V45=6 - V50=2 - V55=1 - V60=1 - Vse=4
Div: 6 (5.26%) => 0H20=1 - JoA=4 - JoB=1

Overzicht Top3, winnares en aantal deelnemers van aanwezige edities

JaarWinnaarTijd2eTijd 3eTijdWinnaresTijd#

7.44 km

2020Tim van de Velde23:01Maarten de Nijs23:49Nick Jacobs23:51Monica Sanderse27:26163
2019Tim van de Velde22:22Maarten de Nys23:52Niek den Exter24:18Marianne de Kok28:30158
2018Erwin Harmes23:26Patrick de Vos23:59Tim van der Broeke24:11Monique Verschuure27:25134
2017Tim van de Velde23:06Maarten de Nys23:41Erwin Adan23:55Monique Verschuure29:01115
2016Tim van de Velde23:42Maarten De Nys23:42Erwin Harmes23:45Annet van der Linde31:34105
2015Tim Pleijte22:47Erwin Harmes23:56Maarten De Nys24:14Monique Verschuure28:59155
2014Stein Van Es23:42Erwin Harmes23:46Mitchel van der Steen24:46Margriet Beekman-Rotte30:49137
2013Dieter Vanstreels22:38Emmanuel Loverie23:49Tommy Staal24:06Marianne de Kok29:08135
2012Maarten Mortelmans23:59Neal Bouterse24:27Willem de Korte27:06Paola van Gilst33:31106
2011Dieter Vanstreels23:29Roy Van Son23:35Jeroen Maas23:45Saskia Goole32:33102
2009Dieter Vanstreels23:39Bart Verschoren23:56Maarten Mortelmans24:07Astrid den Herder32:2783
2008Stein Van Es23:44Tim Pleijte23:49Bart Verschoren24:32Astrid den Herder32:0786
2007Bart Verschoren24:11Michel Schrier25:20Stein van Es25:36Leonie Ton31:3473
2006Bart Verschoren23:53Loic Helin24:43Ruud Woord25:07Marianne de Kok29:1797
2005Bart Verschoren23:29Ben Quintelier24:39Alex Storms24:45Andere afstand43
2004Bart Verschoren24:01Alex Storms24:13Ruud Woord24:17Andere afstand56
2003Bart Verschoren24:14Joost de Klerk24:30Alwin Vermeulen24:35Andere afstand21
2002Bart Verschoren23:33Ruben Scheurwater24:04Alex Storms24:21Andere afstand74
2001Armand van der Smissen22:58Jeroen Punt23:46Bart Verschoren24:11Andere afstand21
2000Jeroen Punt23:36Bart Verschoren24:22Alwin Vermeulen24:27Andere afstand3
1999Dennis Klasen23:33Koen Raymaekers23:53Niels Koole24:18Andere afstand3
1998John Vermeule23:12Rachid Ben Meziane23:31Raf Peeters24:02Andere afstand3
1997John Vermeule23:07Benny Ceulemans23:24Raf Peeters23:31Andere afstand3
1995Mauricio Gonzalez22:23Theo van den Abeele22:30Robin Punt22:41Andere afstand3
1994Robin Punt22:21Dennis Klasen22:38Erik Punt22:51Andere afstand31
1993Erik Punt22:34Hans van de Griendt22:59Robin Punt23:13Andere afstand3
1992Raf Wyns21:55Michel de Maat22:22Rudi Cock22:37Andere afstand3
1991Michel de Maat23:09Domien Brandsma23:20Hans van de Griendt23:26Andere afstand3
1990Geert Bouton23:00Leon van der Velden23:03Rian van den Broeke23:21Andere afstand3
1989Geert Bouton22:58Leon van der Velden23:04Marc Nevens23:22Andere afstand55
1988Jo Slagmolen22:54Leon van der Velden22:56Erik Punt23:16Andere afstand3
1987Leon van der Velden22:51Frank Kooman23:25Hans van Voorden23:26Andere afstand3
1986Dave Cameron22:43Frank Kooman23:23Leon van der Velden23:27Andere afstand3
1985Johan de Vlieger24:04Albert Karstanje24:09Frans Krijnsen24:11Andere afstand36
1984Luc Wijns22:18Thomas Langhammer22:40Aart Stigter23:06Andere afstand3
1983Luc Wijns22:24Kim Reijnierse22:55Huib Dalebout23:17Andere afstand3
1982Marc Nevens23:24John Vermeule23:42Piet Vonck23:47Andere afstand3
1981Marc Nevens23:00Jan de Bart23:26Kim Reijnierse23:34Andere afstand3
1980Marc Nevens22:51Dirk Geens23:27R. Blocks23:45Andere afstand3
1979Harry Patist23:16Dirk Geens23:34Johan Antheunisse23:42Andere afstand3
1978Marc Smet22:01Piet Vonck22:35Marc Nevens22:42Andere afstand3
1977Marc Smet22:42Marc Nevens23:08A. Vidas24:05Andere afstand3
1976Marc Nevens22:34Marien van Prooyen23:32Andre Boonen23:47Andere afstand3
1975Marien van Prooyen23:33K. van der Heul23:41Johan Antheunisse23:49Andere afstand23
1974Piet Vonck22:45J. Brands24:01J. van Eekelen24:22Andere afstand16
1973Piet Vonck22:54Kees van Dalen23:21H. van Kasteren23:33Andere afstand29

Snelheid en tempo zijn berekend op de vermelde afstand. Bij een onjuiste afstand wijken deze uiteraard af!

Fouten melden via info@atletiekzeeland.nl Categorie fout? Mail dan geboortedatum. (geldt alleen voor Zeeuwen)

De server had 0.334 seconden nodig om deze lijst met 114 prestaties samen te stellen.

Terug naar boven


 
Laatste reacties:
Jan Roose: Zal Heerser John Vermeule Ooit..
Jan Roose: Resultaten Run Your Own Race 5..
Wouter Verstraate: Resultaten Run Your Own Race 5..
Jan Roose: Resultaten Run Your Own Race 5..
Jos den Hollander: Zal Heerser John Vermeule Ooit..
Floris Willeboordse: Zal Heerser John Vermeule Ooit..
Jos den Hollander: Zal Heerser John Vermeule Ooit..
Recente Zeeuwse prestaties meer prestaties
08-03: 45e CPC Loop Den Haag (89)
01-03: 20 van Alphen Alphen a/d Rijn (4)
01-03: Rico Salvettiloop Moergestel (2)
23-02: NK indoor Senioren Apeldoorn (1)
23-02: Wegwedstrijd Xabia (1)
22-02: BK indoor studenten Gent (2)
15-02: NK indoor A/B-junioren Apeldoorn (2)
Atletiek Zeeland © 2020